Terminal Aerodrome Forecast
Issued by NWS

Home | Current Version | Previous Version | Text Only | Print | Product List | Glossary On
Versions: 1 2 3 4 5 6 7 8 9 10 11 12 13 14 15 16 17 18
000
FTUS43 KSGF 011700
TAFJLN
TAF
KJLN 011725Z 0118/0218 30022G30KT P6SM OVC015
     FM020200 33017G25KT P6SM OVC025
     FM020800 33010KT P6SM OVC030
     FM021400 33006KT P6SM SCT040=

USA.gov is the U.S. government's official web portal to all federal, state and local government web resources and services.